sensor_id;sensor_type;location;lat;lon;timestamp;pressure;altitude;pressure_sealevel;temperature;humidity
30724;BME280;17473;52.286;20.930;2023-06-04T00:02:24;100994.75;;;12.09;45.20
30724;BME280;17473;52.286;20.930;2023-06-04T00:04:51;100992.31;;;12.15;44.94
30724;BME280;17473;52.286;20.930;2023-06-04T00:07:19;100990.22;;;12.06;45.76
30724;BME280;17473;52.286;20.930;2023-06-04T00:09:46;100992.19;;;12.12;45.65
30724;BME280;17473;52.286;20.930;2023-06-04T00:12:14;100990.50;;;12.14;45.98
30724;BME280;17473;52.286;20.930;2023-06-04T00:14:41;100986.84;;;12.10;46.03
30724;BME280;17473;52.286;20.930;2023-06-04T00:17:09;100992.16;;;12.10;46.04
30724;BME280;17473;52.286;20.930;2023-06-04T00:19:39;100987.97;;;12.17;46.15
30724;BME280;17473;52.286;20.930;2023-06-04T00:22:08;100987.66;;;12.08;46.19
30724;BME280;17473;52.286;20.930;2023-06-04T00:24:38;100983.13;;;11.82;46.80
30724;BME280;17473;52.286;20.930;2023-06-04T00:27:08;100984.88;;;11.82;47.08
30724;BME280;17473;52.286;20.930;2023-06-04T00:29:35;100984.75;;;11.79;47.23
30724;BME280;17473;52.286;20.930;2023-06-04T00:32:03;100981.31;;;11.81;47.38
30724;BME280;17473;52.286;20.930;2023-06-04T00:34:30;100986.59;;;11.81;47.36
30724;BME280;17473;52.286;20.930;2023-06-04T00:36:57;100987.19;;;11.72;47.72
30724;BME280;17473;52.286;20.930;2023-06-04T00:39:24;100981.50;;;11.86;47.47
30724;BME280;17473;52.286;20.930;2023-06-04T00:41:51;100989.22;;;11.80;47.76
30724;BME280;17473;52.286;20.930;2023-06-04T00:44:19;100983.00;;;11.79;48.02
30724;BME280;17473;52.286;20.930;2023-06-04T00:46:48;100983.69;;;11.73;47.78
30724;BME280;17473;52.286;20.930;2023-06-04T00:49:16;100989.56;;;11.66;48.22
30724;BME280;17473;52.286;20.930;2023-06-04T00:51:43;100994.00;;;11.67;48.03
30724;BME280;17473;52.286;20.930;2023-06-04T00:54:11;100982.97;;;11.55;47.83
30724;BME280;17473;52.286;20.930;2023-06-04T00:56:39;100981.09;;;11.52;47.80
30724;BME280;17473;52.286;20.930;2023-06-04T00:59:08;100983.50;;;11.46;47.88
30724;BME280;17473;52.286;20.930;2023-06-04T01:01:58;100983.69;;;11.51;47.52
30724;BME280;17473;52.286;20.930;2023-06-04T01:07:26;100980.63;;;11.40;48.20
30724;BME280;17473;52.286;20.930;2023-06-04T01:09:55;100975.63;;;11.48;47.44
30724;BME280;17473;52.286;20.930;2023-06-04T01:12:22;100981.22;;;11.55;47.21
30724;BME280;17473;52.286;20.930;2023-06-04T01:14:50;100981.09;;;11.75;46.99
30724;BME280;17473;52.286;20.930;2023-06-04T01:17:40;100982.84;;;11.52;46.93
30724;BME280;17473;52.286;20.930;2023-06-04T01:20:40;100976.59;;;11.50;47.02
30724;BME280;17473;52.286;20.930;2023-06-04T01:26:04;100978.53;;;11.54;46.70
30724;BME280;17473;52.286;20.930;2023-06-04T01:28:34;100979.31;;;11.51;46.46
30724;BME280;17473;52.286;20.930;2023-06-04T01:31:03;100985.13;;;11.42;46.69
30724;BME280;17473;52.286;20.930;2023-06-04T01:33:30;100986.75;;;11.39;46.50
30724;BME280;17473;52.286;20.930;2023-06-04T01:35:58;100981.81;;;11.48;46.56
30724;BME280;17473;52.286;20.930;2023-06-04T01:38:25;100973.47;;;11.37;46.86
30724;BME280;17473;52.286;20.930;2023-06-04T01:40:52;100980.06;;;11.49;46.85
30724;BME280;17473;52.286;20.930;2023-06-04T01:43:23;100975.38;;;11.41;46.67
30724;BME280;17473;52.286;20.930;2023-06-04T01:45:50;100983.19;;;11.61;46.19
30724;BME280;17473;52.286;20.930;2023-06-04T01:48:17;100971.19;;;11.47;46.47
30724;BME280;17473;52.286;20.930;2023-06-04T01:50:44;100975.78;;;11.52;46.70
30724;BME280;17473;52.286;20.930;2023-06-04T01:53:11;100972.41;;;11.55;46.49
30724;BME280;17473;52.286;20.930;2023-06-04T01:55:38;100981.94;;;11.74;46.04
30724;BME280;17473;52.286;20.930;2023-06-04T01:58:06;100978.13;;;11.67;46.17
30724;BME280;17473;52.286;20.930;2023-06-04T02:00:34;100978.44;;;11.52;46.25
30724;BME280;17473;52.286;20.930;2023-06-04T02:03:01;100971.75;;;11.61;46.13
30724;BME280;17473;52.286;20.930;2023-06-04T02:05:28;100964.88;;;11.66;45.80
30724;BME280;17473;52.286;20.930;2023-06-04T02:07:56;100974.13;;;11.54;46.13
30724;BME280;17473;52.286;20.930;2023-06-04T02:10:24;100966.31;;;11.57;46.33
30724;BME280;17473;52.286;20.930;2023-06-04T02:12:56;100964.19;;;11.49;46.35
30724;BME280;17473;52.286;20.930;2023-06-04T02:15:25;100972.25;;;11.52;46.72
30724;BME280;17473;52.286;20.930;2023-06-04T02:18:12;100967.13;;;11.79;46.20
30724;BME280;17473;52.286;20.930;2023-06-04T02:20:48;100981.03;;;11.73;46.54
30724;BME280;17473;52.286;20.930;2023-06-04T02:23:17;100971.44;;;11.53;46.80
30724;BME280;17473;52.286;20.930;2023-06-04T02:25:45;100974.06;;;11.53;47.23
30724;BME280;17473;52.286;20.930;2023-06-04T02:28:13;100972.41;;;11.55;47.21
30724;BME280;17473;52.286;20.930;2023-06-04T02:30:41;100973.09;;;11.51;47.01
30724;BME280;17473;52.286;20.930;2023-06-04T02:33:08;100971.72;;;11.38;47.60
30724;BME280;17473;52.286;20.930;2023-06-04T02:35:37;100974.78;;;11.49;47.35
30724;BME280;17473;52.286;20.930;2023-06-04T02:38:05;100976.81;;;11.33;47.70
30724;BME280;17473;52.286;20.930;2023-06-04T02:40:32;100976.69;;;11.30;47.69
30724;BME280;17473;52.286;20.930;2023-06-04T02:42:59;100973.84;;;11.25;48.25
30724;BME280;17473;52.286;20.930;2023-06-04T02:45:26;100976.16;;;11.39;47.76
30724;BME280;17473;52.286;20.930;2023-06-04T02:47:53;100966.06;;;11.28;48.04
30724;BME280;17473;52.286;20.930;2023-06-04T02:50:20;100968.47;;;11.22;48.25
30724;BME280;17473;52.286;20.930;2023-06-04T02:52:47;100976.81;;;11.33;48.37
30724;BME280;17473;52.286;20.930;2023-06-04T02:55:14;100980.75;;;11.22;48.24
30724;BME280;17473;52.286;20.930;2023-06-04T02:57:42;100974.00;;;11.28;48.46
30724;BME280;17473;52.286;20.930;2023-06-04T03:00:14;100974.69;;;11.46;47.77
30724;BME280;17473;52.286;20.930;2023-06-04T03:02:44;100975.44;;;11.43;47.98
30724;BME280;17473;52.286;20.930;2023-06-04T03:05:14;100974.06;;;11.53;47.90
30724;BME280;17473;52.286;20.930;2023-06-04T03:07:43;100972.00;;;11.68;47.97
30724;BME280;17473;52.286;20.930;2023-06-04T03:10:13;100980.88;;;11.69;48.18
30724;BME280;17473;52.286;20.930;2023-06-04T03:12:41;100979.78;;;11.64;48.30
30724;BME280;17473;52.286;20.930;2023-06-04T03:15:09;100971.47;;;11.54;48.68
30724;BME280;17473;52.286;20.930;2023-06-04T03:17:37;100968.38;;;11.42;48.93
30724;BME280;17473;52.286;20.930;2023-06-04T03:20:05;100967.75;;;11.49;48.78
30724;BME280;17473;52.286;20.930;2023-06-04T03:22:34;100967.16;;;11.56;48.88
30724;BME280;17473;52.286;20.930;2023-06-04T03:25:03;100975.13;;;11.58;48.98
30724;BME280;17473;52.286;20.930;2023-06-04T03:27:32;100979.84;;;11.65;48.90
30724;BME280;17473;52.286;20.930;2023-06-04T03:30:00;100977.03;;;11.61;49.14
30724;BME280;17473;52.286;20.930;2023-06-04T03:32:27;100976.72;;;11.53;49.33
30724;BME280;17473;52.286;20.930;2023-06-04T03:34:54;100971.00;;;11.65;49.10
30724;BME280;17473;52.286;20.930;2023-06-04T03:37:21;100972.13;;;11.71;48.87
30724;BME280;17473;52.286;20.930;2023-06-04T03:39:48;100974.88;;;11.74;48.96
30724;BME280;17473;52.286;20.930;2023-06-04T03:42:15;100974.03;;;11.75;48.92
30724;BME280;17473;52.286;20.930;2023-06-04T03:44:42;100974.56;;;11.89;48.68
30724;BME280;17473;52.286;20.930;2023-06-04T03:47:09;100978.56;;;12.25;47.85
30724;BME280;17473;52.286;20.930;2023-06-04T03:49:37;100982.53;;;12.62;47.33
30724;BME280;17473;52.286;20.930;2023-06-04T03:52:04;100981.56;;;12.86;46.80
30724;BME280;17473;52.286;20.930;2023-06-04T03:54:31;100978.38;;;12.96;46.78
30724;BME280;17473;52.286;20.930;2023-06-04T03:56:58;100978.50;;;13.27;45.80
30724;BME280;17473;52.286;20.930;2023-06-04T03:59:25;100982.03;;;13.27;45.81
30724;BME280;17473;52.286;20.930;2023-06-04T04:01:52;100980.28;;;13.28;45.85
30724;BME280;17473;52.286;20.930;2023-06-04T04:04:19;100981.19;;;13.28;46.53
30724;BME280;17473;52.286;20.930;2023-06-04T04:06:47;100985.59;;;13.84;45.22
30724;BME280;17473;52.286;20.930;2023-06-04T04:09:14;100987.06;;;14.67;43.33
30724;BME280;17473;52.286;20.930;2023-06-04T04:11:42;100973.06;;;15.46;41.90
30724;BME280;17473;52.286;20.930;2023-06-04T04:14:09;100971.06;;;16.65;39.74
30724;BME280;17473;52.286;20.930;2023-06-04T04:16:36;100976.13;;;17.55;37.82
30724;BME280;17473;52.286;20.930;2023-06-04T04:19:03;100971.78;;;18.34;36.30
30724;BME280;17473;52.286;20.930;2023-06-04T04:21:30;100967.47;;;18.45;35.50
30724;BME280;17473;52.286;20.930;2023-06-04T04:23:57;100956.66;;;19.33;34.69
30724;BME280;17473;52.286;20.930;2023-06-04T04:26:24;100962.72;;;19.04;34.16
30724;BME280;17473;52.286;20.930;2023-06-04T04:28:54;100973.34;;;18.97;34.28
30724;BME280;17473;52.286;20.930;2023-06-04T04:31:28;100977.00;;;18.22;35.48
30724;BME280;17473;52.286;20.930;2023-06-04T04:33:55;100977.31;;;17.79;36.24
30724;BME280;17473;52.286;20.930;2023-06-04T04:36:23;100973.44;;;17.55;36.83
30724;BME280;17473;52.286;20.930;2023-06-04T04:38:51;100963.34;;;18.80;35.06
30724;BME280;17473;52.286;20.930;2023-06-04T04:41:21;100968.59;;;22.27;30.18
30724;BME280;17473;52.286;20.930;2023-06-04T04:43:53;100959.88;;;25.73;25.80
30724;BME280;17473;52.286;20.930;2023-06-04T04:46:20;100943.75;;;27.25;23.96
30724;BME280;17473;52.286;20.930;2023-06-04T04:48:47;100952.59;;;29.64;21.83
30724;BME280;17473;52.286;20.930;2023-06-04T04:51:15;100953.69;;;30.55;20.96
30724;BME280;17473;52.286;20.930;2023-06-04T04:53:42;100945.19;;;31.48;20.33
30724;BME280;17473;52.286;20.930;2023-06-04T04:56:09;100945.09;;;31.91;19.73
30724;BME280;17473;52.286;20.930;2023-06-04T04:58:36;100945.63;;;33.11;18.13
30724;BME280;17473;52.286;20.930;2023-06-04T05:01:03;100950.97;;;33.83;17.55
30724;BME280;17473;52.286;20.930;2023-06-04T05:03:31;100959.22;;;34.48;17.04
30724;BME280;17473;52.286;20.930;2023-06-04T05:05:58;100944.59;;;35.26;16.25
30724;BME280;17473;52.286;20.930;2023-06-04T05:08:25;100948.47;;;33.96;16.58
30724;BME280;17473;52.286;20.930;2023-06-04T05:10:52;100941.72;;;35.44;15.33
30724;BME280;17473;52.286;20.930;2023-06-04T05:13:19;100946.81;;;34.09;16.47
30724;BME280;17473;52.286;20.930;2023-06-04T05:15:47;100947.44;;;34.78;15.39
30724;BME280;17473;52.286;20.930;2023-06-04T05:18:14;100946.06;;;36.06;14.53
30724;BME280;17473;52.286;20.930;2023-06-04T05:20:43;100945.53;;;37.77;13.79
30724;BME280;17473;52.286;20.930;2023-06-04T05:23:10;100944.94;;;36.23;14.36
30724;BME280;17473;52.286;20.930;2023-06-04T05:25:39;100935.06;;;37.43;13.52
30724;BME280;17473;52.286;20.930;2023-06-04T05:28:07;100941.91;;;38.39;12.58
30724;BME280;17473;52.286;20.930;2023-06-04T05:30:34;100948.94;;;38.06;12.97
30724;BME280;17473;52.286;20.930;2023-06-04T05:33:02;100947.34;;;38.28;12.87
30724;BME280;17473;52.286;20.930;2023-06-04T05:35:29;100943.75;;;38.51;12.90
30724;BME280;17473;52.286;20.930;2023-06-04T05:37:56;100952.72;;;38.42;12.61
30724;BME280;17473;52.286;20.930;2023-06-04T05:40:24;100949.28;;;37.63;12.45
30724;BME280;17473;52.286;20.930;2023-06-04T05:42:51;100948.72;;;37.83;12.77
30724;BME280;17473;52.286;20.930;2023-06-04T05:45:18;100944.94;;;38.36;12.11
30724;BME280;17473;52.286;20.930;2023-06-04T05:47:45;100944.31;;;39.17;11.86
30724;BME280;17473;52.286;20.930;2023-06-04T05:50:12;100942.16;;;39.09;12.50
30724;BME280;17473;52.286;20.930;2023-06-04T05:52:39;100940.97;;;39.71;11.52
30724;BME280;17473;52.286;20.930;2023-06-04T05:55:07;100944.94;;;39.67;11.58
30724;BME280;17473;52.286;20.930;2023-06-04T05:57:35;100943.31;;;39.65;11.08
30724;BME280;17473;52.286;20.930;2023-06-04T06:00:03;100941.03;;;39.47;11.26
30724;BME280;17473;52.286;20.930;2023-06-04T06:02:35;100942.91;;;39.35;11.69
30724;BME280;17473;52.286;20.930;2023-06-04T06:05:03;100948.38;;;39.82;11.17
30724;BME280;17473;52.286;20.930;2023-06-04T06:07:30;100943.94;;;40.02;10.99
30724;BME280;17473;52.286;20.930;2023-06-04T06:09:58;100943.22;;;40.99;11.00
30724;BME280;17473;52.286;20.930;2023-06-04T06:12:25;100950.41;;;40.70;10.57
30724;BME280;17473;52.286;20.930;2023-06-04T06:14:52;100948.44;;;40.49;11.03
30724;BME280;17473;52.286;20.930;2023-06-04T06:17:19;100952.25;;;40.80;10.97
30724;BME280;17473;52.286;20.930;2023-06-04T06:19:46;100963.88;;;40.63;10.62
30724;BME280;17473;52.286;20.930;2023-06-04T06:22:13;100963.75;;;40.53;10.64
30724;BME280;17473;52.286;20.930;2023-06-04T06:24:40;100960.63;;;39.67;11.34
30724;BME280;17473;52.286;20.930;2023-06-04T06:27:07;100960.91;;;40.09;10.78
30724;BME280;17473;52.286;20.930;2023-06-04T06:29:35;100963.06;;;40.28;11.19
30724;BME280;17473;52.286;20.930;2023-06-04T06:32:03;100954.47;;;41.40;10.48
30724;BME280;17473;52.286;20.930;2023-06-04T06:34:30;100964.16;;;41.25;10.34
30724;BME280;17473;52.286;20.930;2023-06-04T06:36:57;100968.34;;;40.20;10.93
30724;BME280;17473;52.286;20.930;2023-06-04T06:39:24;100961.66;;;40.22;10.75
30724;BME280;17473;52.286;20.930;2023-06-04T06:41:52;100965.19;;;40.02;11.05
30724;BME280;17473;52.286;20.930;2023-06-04T06:44:19;100957.88;;;39.67;11.18
30724;BME280;17473;52.286;20.930;2023-06-04T06:46:46;100970.53;;;39.58;11.31
30724;BME280;17473;52.286;20.930;2023-06-04T06:49:17;100977.47;;;40.55;11.05
30724;BME280;17473;52.286;20.930;2023-06-04T06:51:44;100968.34;;;40.31;11.14
30724;BME280;17473;52.286;20.930;2023-06-04T06:54:12;100977.38;;;39.88;11.13
30724;BME280;17473;52.286;20.930;2023-06-04T06:56:41;100978.59;;;39.61;10.14
30724;BME280;17473;52.286;20.930;2023-06-04T06:59:08;100972.00;;;39.39;10.71
30724;BME280;17473;52.286;20.930;2023-06-04T07:01:35;100980.69;;;40.16;10.43
30724;BME280;17473;52.286;20.930;2023-06-04T07:04:02;100977.03;;;39.34;10.99
30724;BME280;17473;52.286;20.930;2023-06-04T07:06:29;100979.00;;;40.02;10.56
30724;BME280;17473;52.286;20.930;2023-06-04T07:08:56;100978.41;;;39.40;11.23
30724;BME280;17473;52.286;20.930;2023-06-04T07:11:23;100986.53;;;38.57;10.55
30724;BME280;17473;52.286;20.930;2023-06-04T07:13:52;100984.94;;;38.66;9.97
30724;BME280;17473;52.286;20.930;2023-06-04T07:16:19;100985.63;;;37.81;11.18
30724;BME280;17473;52.286;20.930;2023-06-04T07:18:50;100983.53;;;37.97;11.33
30724;BME280;17473;52.286;20.930;2023-06-04T07:21:17;100970.00;;;37.81;11.21
30724;BME280;17473;52.286;20.930;2023-06-04T07:23:46;100976.34;;;38.20;10.54
30724;BME280;17473;52.286;20.930;2023-06-04T07:26:17;100973.22;;;38.38;10.33
30724;BME280;17473;52.286;20.930;2023-06-04T07:28:44;100973.47;;;38.35;10.88
30724;BME280;17473;52.286;20.930;2023-06-04T07:31:16;100974.41;;;37.97;10.91
30724;BME280;17473;52.286;20.930;2023-06-04T07:33:44;100972.59;;;37.04;11.32
30724;BME280;17473;52.286;20.930;2023-06-04T07:36:13;100974.94;;;38.02;11.00
30724;BME280;17473;52.286;20.930;2023-06-04T07:38:41;100980.13;;;36.87;11.65
30724;BME280;17473;52.286;20.930;2023-06-04T07:41:09;100969.31;;;35.86;12.35
30724;BME280;17473;52.286;20.930;2023-06-04T07:43:37;100972.34;;;35.81;12.76
30724;BME280;17473;52.286;20.930;2023-06-04T07:46:04;100964.53;;;35.45;13.50
30724;BME280;17473;52.286;20.930;2023-06-04T07:48:32;100974.16;;;34.91;13.16
30724;BME280;17473;52.286;20.930;2023-06-04T07:51:01;100977.88;;;33.92;13.73
30724;BME280;17473;52.286;20.930;2023-06-04T07:53:28;100977.75;;;32.52;13.81
30724;BME280;17473;52.286;20.930;2023-06-04T07:55:56;100969.81;;;31.88;14.85
30724;BME280;17473;52.286;20.930;2023-06-04T07:58:24;100983.22;;;30.66;15.17
30724;BME280;17473;52.286;20.930;2023-06-04T08:00:53;100970.59;;;30.85;15.99
30724;BME280;17473;52.286;20.930;2023-06-04T08:03:20;100981.91;;;30.76;16.15
30724;BME280;17473;52.286;20.930;2023-06-04T08:05:47;100969.22;;;30.75;15.99
30724;BME280;17473;52.286;20.930;2023-06-04T08:08:14;100979.75;;;30.62;16.66
30724;BME280;17473;52.286;20.930;2023-06-04T08:10:41;100981.88;;;30.06;16.61
30724;BME280;17473;52.286;20.930;2023-06-04T08:13:09;100982.75;;;29.32;16.62
30724;BME280;17473;52.286;20.930;2023-06-04T08:15:36;100975.19;;;28.87;17.25
30724;BME280;17473;52.286;20.930;2023-06-04T08:18:03;100974.03;;;29.48;16.93
30724;BME280;17473;52.286;20.930;2023-06-04T08:20:30;100965.38;;;30.11;16.45
30724;BME280;17473;52.286;20.930;2023-06-04T08:22:57;100972.16;;;30.47;16.33
30724;BME280;17473;52.286;20.930;2023-06-04T08:25:24;100954.94;;;31.13;16.55
30724;BME280;17473;52.286;20.930;2023-06-04T08:27:52;100954.28;;;31.28;16.54
30724;BME280;17473;52.286;20.930;2023-06-04T08:30:19;100954.00;;;31.55;15.88
30724;BME280;17473;52.286;20.930;2023-06-04T08:32:46;100948.22;;;30.99;16.23
30724;BME280;17473;52.286;20.930;2023-06-04T08:35:13;100951.69;;;31.46;16.49
30724;BME280;17473;52.286;20.930;2023-06-04T08:37:40;100946.56;;;31.59;15.80
30724;BME280;17473;52.286;20.930;2023-06-04T08:40:09;100961.69;;;29.88;17.43
30724;BME280;17473;52.286;20.930;2023-06-04T08:42:46;100959.94;;;29.36;16.68
30724;BME280;17473;52.286;20.930;2023-06-04T08:45:14;100957.34;;;29.33;16.69
30724;BME280;17473;52.286;20.930;2023-06-04T08:47:49;100959.69;;;27.38;18.29
30724;BME280;17473;52.286;20.930;2023-06-04T08:50:23;100959.75;;;27.69;18.48
30724;BME280;17473;52.286;20.930;2023-06-04T08:52:55;100953.97;;;27.82;17.95
30724;BME280;17473;52.286;20.930;2023-06-04T08:55:23;100957.75;;;27.76;18.00
30724;BME280;17473;52.286;20.930;2023-06-04T08:57:50;100942.44;;;28.63;17.96
30724;BME280;17473;52.286;20.930;2023-06-04T09:00:19;100954.78;;;29.27;17.21
30724;BME280;17473;52.286;20.930;2023-06-04T09:02:47;100944.22;;;28.93;17.58
30724;BME280;17473;52.286;20.930;2023-06-04T09:05:22;100956.84;;;29.47;16.59
30724;BME280;17473;52.286;20.930;2023-06-04T09:07:53;100952.22;;;28.97;16.69
30724;BME280;17473;52.286;20.930;2023-06-04T09:10:24;100952.25;;;29.23;17.36
30724;BME280;17473;52.286;20.930;2023-06-04T09:12:57;100945.56;;;29.58;16.81
30724;BME280;17473;52.286;20.930;2023-06-04T09:15:28;100951.94;;;29.32;16.59
30724;BME280;17473;52.286;20.930;2023-06-04T09:17:55;100947.16;;;29.13;17.21
30724;BME280;17473;52.286;20.930;2023-06-04T09:20:23;100942.00;;;28.20;18.57
30724;BME280;17473;52.286;20.930;2023-06-04T09:22:50;100936.38;;;28.26;18.62
30724;BME280;17473;52.286;20.930;2023-06-04T09:25:26;100946.66;;;28.15;18.01
30724;BME280;17473;52.286;20.930;2023-06-04T09:28:05;100945.13;;;27.07;18.45
30724;BME280;17473;52.286;20.930;2023-06-04T09:30:33;100938.34;;;26.91;18.83
30724;BME280;17473;52.286;20.930;2023-06-04T09:33:08;100933.50;;;28.01;19.15
30724;BME280;17473;52.286;20.930;2023-06-04T09:35:35;100931.09;;;27.90;18.57
30724;BME280;17473;52.286;20.930;2023-06-04T09:38:04;100947.97;;;26.25;18.90
30724;BME280;17473;52.286;20.930;2023-06-04T09:40:37;100936.47;;;26.14;19.60
30724;BME280;17473;52.286;20.930;2023-06-04T09:43:04;100932.06;;;26.89;19.54
30724;BME280;17473;52.286;20.930;2023-06-04T09:45:36;100935.75;;;26.86;19.50
30724;BME280;17473;52.286;20.930;2023-06-04T09:48:04;100931.59;;;27.07;19.39
30724;BME280;17473;52.286;20.930;2023-06-04T09:50:36;100929.31;;;27.89;18.38
30724;BME280;17473;52.286;20.930;2023-06-04T09:53:19;100925.97;;;28.41;18.14
30724;BME280;17473;52.286;20.930;2023-06-04T09:56:03;100936.69;;;27.20;18.65
30724;BME280;17473;52.286;20.930;2023-06-04T09:58:31;100933.47;;;27.38;18.66
30724;BME280;17473;52.286;20.930;2023-06-04T10:01:05;100924.44;;;27.71;18.29
30724;BME280;17473;52.286;20.930;2023-06-04T10:03:35;100929.09;;;27.65;17.84
30724;BME280;17473;52.286;20.930;2023-06-04T10:06:05;100921.69;;;26.68;18.25
30724;BME280;17473;52.286;20.930;2023-06-04T10:08:35;100909.78;;;27.12;18.15
30724;BME280;17473;52.286;20.930;2023-06-04T10:11:05;100919.44;;;27.87;17.86
30724;BME280;17473;52.286;20.930;2023-06-04T10:14:36;100916.94;;;27.49;17.97
30724;BME280;17473;52.286;20.930;2023-06-04T10:16:52;100909.78;;;27.78;17.57
30724;BME280;17473;52.286;20.930;2023-06-04T10:19:20;100906.22;;;27.10;18.32
30724;BME280;17473;52.286;20.930;2023-06-04T10:21:48;100906.88;;;26.47;18.30
30724;BME280;17473;52.286;20.930;2023-06-04T10:24:15;100915.22;;;26.38;18.68
30724;BME280;17473;52.286;20.930;2023-06-04T10:26:43;100906.88;;;26.47;18.93
30724;BME280;17473;52.286;20.930;2023-06-04T10:29:11;100903.56;;;25.92;19.44
30724;BME280;17473;52.286;20.930;2023-06-04T10:31:39;100910.66;;;25.55;19.97
30724;BME280;17473;52.286;20.930;2023-06-04T10:34:08;100903.78;;;26.25;19.22
30724;BME280;17473;52.286;20.930;2023-06-04T10:36:44;100901.19;;;26.20;19.28
30724;BME280;17473;52.286;20.930;2023-06-04T10:39:12;100902.53;;;26.40;19.22
30724;BME280;17473;52.286;20.930;2023-06-04T10:41:39;100903.00;;;26.20;19.09
30724;BME280;17473;52.286;20.930;2023-06-04T10:44:07;100906.78;;;26.13;19.12
30724;BME280;17473;52.286;20.930;2023-06-04T10:46:39;100900.06;;;26.29;19.12
30724;BME280;17473;52.286;20.930;2023-06-04T10:49:10;100897.69;;;26.91;19.33
30724;BME280;17473;52.286;20.930;2023-06-04T10:51:41;100902.19;;;26.92;19.42
30724;BME280;17473;52.286;20.930;2023-06-04T10:54:21;100895.00;;;26.91;19.39
30724;BME280;17473;52.286;20.930;2023-06-04T10:56:48;100896.00;;;26.11;19.31
30724;BME280;17473;52.286;20.930;2023-06-04T10:59:17;100898.19;;;26.33;19.28
30724;BME280;17473;52.286;20.930;2023-06-04T11:01:45;100886.41;;;26.35;19.40
30724;BME280;17473;52.286;20.930;2023-06-04T11:04:24;100886.69;;;25.82;20.30
30724;BME280;17473;52.286;20.930;2023-06-04T11:07:06;100890.09;;;24.98;21.36
30724;BME280;17473;52.286;20.930;2023-06-04T11:09:57;100891.56;;;24.63;21.49
30724;BME280;17473;52.286;20.930;2023-06-04T11:12:24;100884.81;;;24.35;21.51
30724;BME280;17473;52.286;20.930;2023-06-04T11:14:58;100888.75;;;24.13;21.86
30724;BME280;17473;52.286;20.930;2023-06-04T11:17:26;100891.19;;;23.59;22.03
30724;BME280;17473;52.286;20.930;2023-06-04T11:19:53;100887.91;;;24.07;21.96
30724;BME280;17473;52.286;20.930;2023-06-04T11:22:23;100884.22;;;24.15;21.99
30724;BME280;17473;52.286;20.930;2023-06-04T11:24:57;100886.19;;;24.03;22.28
30724;BME280;17473;52.286;20.930;2023-06-04T11:27:27;100880.31;;;24.34;21.91
30724;BME280;17473;52.286;20.930;2023-06-04T11:30:01;100888.09;;;23.95;22.29
30724;BME280;17473;52.286;20.930;2023-06-04T11:32:29;100899.69;;;24.00;22.19
30724;BME280;17473;52.286;20.930;2023-06-04T11:35:05;100892.28;;;23.44;23.20
30724;BME280;17473;52.286;20.930;2023-06-04T11:37:34;100883.69;;;23.86;23.42
30724;BME280;17473;52.286;20.930;2023-06-04T11:40:03;100878.81;;;24.16;21.74
30724;BME280;17473;52.286;20.930;2023-06-04T11:42:33;100884.84;;;23.65;22.72
30724;BME280;17473;52.286;20.930;2023-06-04T11:45:03;100878.66;;;24.26;22.43
30724;BME280;17473;52.286;20.930;2023-06-04T11:47:31;100892.75;;;24.46;21.96
30724;BME280;17473;52.286;20.930;2023-06-04T11:49:59;100880.69;;;24.11;22.34
30724;BME280;17473;52.286;20.930;2023-06-04T11:52:27;100880.19;;;23.78;22.12
30724;BME280;17473;52.286;20.930;2023-06-04T11:54:55;100875.59;;;23.88;22.45
30724;BME280;17473;52.286;20.930;2023-06-04T11:57:22;100881.72;;;24.01;22.46
30724;BME280;17473;52.286;20.930;2023-06-04T11:59:49;100878.25;;;23.89;22.44
30724;BME280;17473;52.286;20.930;2023-06-04T12:02:17;100868.78;;;23.56;23.15
30724;BME280;17473;52.286;20.930;2023-06-04T12:04:49;100867.81;;;23.65;22.86
30724;BME280;17473;52.286;20.930;2023-06-04T12:07:20;100882.44;;;23.42;22.51
30724;BME280;17473;52.286;20.930;2023-06-04T12:09:51;100871.72;;;23.37;22.45
30724;BME280;17473;52.286;20.930;2023-06-04T12:12:22;100877.97;;;23.39;22.56
30724;BME280;17473;52.286;20.930;2023-06-04T12:14:58;100875.53;;;23.14;23.02
30724;BME280;17473;52.286;20.930;2023-06-04T12:17:25;100873.06;;;22.94;23.25
30724;BME280;17473;52.286;20.930;2023-06-04T12:19:53;100869.06;;;23.34;23.94
30724;BME280;17473;52.286;20.930;2023-06-04T12:22:20;100869.22;;;23.19;22.95
30724;BME280;17473;52.286;20.930;2023-06-04T12:24:55;100873.72;;;23.17;23.42
30724;BME280;17473;52.286;20.930;2023-06-04T12:27:25;100868.72;;;23.64;22.90
30724;BME280;17473;52.286;20.930;2023-06-04T12:30:02;100874.69;;;23.87;22.12
30724;BME280;17473;52.286;20.930;2023-06-04T12:32:30;100873.88;;;23.82;22.71
30724;BME280;17473;52.286;20.930;2023-06-04T12:35:01;100860.94;;;24.07;22.45
30724;BME280;17473;52.286;20.930;2023-06-04T12:37:28;100874.03;;;23.67;22.16
30724;BME280;17473;52.286;20.930;2023-06-04T12:39:55;100873.91;;;23.76;22.19
30724;BME280;17473;52.286;20.930;2023-06-04T12:42:22;100878.41;;;23.77;22.49
30724;BME280;17473;52.286;20.930;2023-06-04T12:44:50;100871.03;;;23.90;22.17
30724;BME280;17473;52.286;20.930;2023-06-04T12:47:17;100868.69;;;23.65;22.66
30724;BME280;17473;52.286;20.930;2023-06-04T12:49:45;100873.88;;;23.82;22.62
30724;BME280;17473;52.286;20.930;2023-06-04T12:52:12;100874.22;;;23.54;22.70
30724;BME280;17473;52.286;20.930;2023-06-04T12:54:42;100878.81;;;23.46;22.38
30724;BME280;17473;52.286;20.930;2023-06-04T12:57:09;100870.44;;;23.69;22.43